Madera, CA (93637)

1:20 PM PST on November 27, 2014 (GMT -0800)
Madera Municipal | Change Station
CLOSE
Current Station
Airport
Location: Madera,
Elevation: 253 ft
Nearby Weather Stations

Elev 253 ft 36.99 °N, 120.11 °W | Updated 27 minutes ago

Clear
Clear
70 °F
Feels Like 70 °F
N
5
Wind Variable Wind from SW

Today
High -- | Low -- °F
--% Chance of Precip.
Yesterday
High -- | Low -- °F
Precip. -- in
6:51 AM 4:45 PM
Waxing Crescent, 33% visible
Pressure 30.12 in
Visibility 6.0 miles
Clouds Clear
Dew Point 44 °F
Humidity 39%
Rainfall 0.00 in
Snow Depth Not available.
UV 3 out of 12
Pollen 1.20 out of 12
Air Quality Not available.
Flu Activity Not available.
METAR KMAE 272053Z AUTO 23004KT 6SM HZ CLR 21/07 A3012 RMK AO2 SLP198 T02110067 58028

More Conditions Fewer Conditions

Pressure 30.12 in
Visibility 6.0 miles
Clouds Clear
Dew Point 44 °F
Humidity 39%
Rainfall 0.00 in
Snow Depth Not available.
UV 3 out of 12
Pollen 1.20 out of 12
Air Quality Not available.
Flu Activity Not available.
METAR KMAE 272053Z AUTO 23004KT 6SM HZ CLR 21/07 A3012 RMK AO2 SLP198 T02110067 58028

More Conditions Fewer Conditions

10-Day Weather Forecast

Almanac

Astronomy

Nov. 27, 2014 Rise Set
Actual Time
Civil Twilight
Nautical Twilight
Astronomical Twilight
Moon
Length of Visible Light
Length of Day
Tomorrow will be .
, % of the Moon is Illuminated

Today's Extremes

State Highs State Lows

Community

WunderPhotos

Upload Photos

1,774,108 photos uploaded!

WunderBlogs® & News

Nearby

Air Quality

  Air Quality AQ Index Pollutant
Not available.

Snow Depth

Station Depth Elevation

Earthquake Activity

City Distance Mag. Time & Date
Minimum magnitude displayed is 2.5.

Coastal Water Temperatures

Place Temperature

Nearby Weather Stations